createdAt,value
2023-02-09T11:37:52.711Z,15.30
2023-02-09T11:38:54.756Z,15.10
2023-02-09T11:39:52.817Z,14.20
2023-02-09T11:40:55.860Z,13.10
2023-02-09T11:41:52.742Z,13.50
2023-02-09T11:42:52.688Z,13.60
2023-02-09T11:43:52.792Z,13.40
2023-02-09T11:44:52.572Z,13.50
2023-02-09T11:45:53.715Z,13.50
2023-02-09T11:46:53.159Z,12.40
2023-02-09T11:47:52.838Z,14.80
2023-02-09T11:48:52.768Z,13.80
2023-02-09T11:49:52.738Z,14.00
2023-02-09T11:50:52.767Z,12.80
2023-02-09T11:51:52.773Z,13.60
2023-02-09T11:52:52.683Z,14.30
2023-02-09T11:53:52.737Z,16.30
2023-02-09T11:54:52.702Z,15.80
2023-02-09T11:55:52.767Z,14.90
2023-02-09T12:01:41.660Z,15.80
2023-02-09T12:02:41.848Z,14.10
2023-02-09T12:03:41.640Z,15.40
2023-02-09T12:04:41.660Z,15.10
2023-02-09T12:05:42.194Z,14.70
2023-02-09T12:09:21.838Z,14.30
2023-02-09T12:10:21.848Z,15.40
2023-02-09T12:12:22.934Z,16.10
2023-02-09T12:13:23.025Z,16.00
2023-02-09T12:14:23.016Z,17.70
2023-02-09T12:16:29.819Z,16.00
2023-02-09T12:17:29.700Z,17.10
2023-02-09T12:20:32.660Z,18.30
2023-02-09T12:23:20.610Z,16.80
2023-02-09T12:24:20.701Z,14.80
2023-02-09T12:28:38.827Z,15.90
2023-02-09T12:29:36.636Z,16.00
2023-02-09T12:40:20.323Z,17.90
2023-02-09T12:44:33.897Z,16.10
2023-02-09T12:49:00.499Z,15.90
2023-02-09T12:50:00.323Z,16.70
2023-02-09T12:52:10.282Z,17.80
2023-02-09T12:54:51.997Z,17.50
2023-02-09T12:55:55.057Z,14.50
2023-02-09T12:56:52.122Z,17.50
2023-02-09T12:57:52.034Z,17.10
2023-02-09T12:58:52.054Z,16.00
2023-02-09T12:59:51.996Z,16.70
2023-02-09T13:00:52.165Z,16.90
2023-02-09T13:01:54.049Z,15.60
2023-02-09T13:02:52.054Z,15.10
2023-02-09T13:03:54.092Z,17.70
2023-02-09T13:07:16.809Z,16.70
2023-02-09T13:08:20.742Z,16.30
2023-02-09T13:09:15.708Z,15.80
2023-02-09T13:10:16.256Z,16.90
2023-02-09T13:11:15.729Z,16.20
2023-02-09T13:12:15.691Z,18.80
2023-02-09T13:13:15.691Z,17.90
2023-02-09T13:14:17.723Z,18.30
2023-02-09T13:15:15.775Z,16.60
2023-02-09T13:16:15.833Z,17.60
2023-02-09T13:17:15.869Z,21.00
2023-02-09T13:18:15.716Z,18.70
2023-02-09T13:19:16.116Z,18.30
2023-02-09T13:20:16.083Z,17.80
2023-02-09T13:21:16.032Z,18.10
2023-02-09T13:22:16.246Z,20.90
2023-02-09T13:23:16.506Z,18.70
2023-02-09T13:24:16.132Z,18.40
2023-02-09T13:25:16.059Z,19.30
2023-02-09T13:26:16.219Z,18.40
2023-02-09T13:27:15.911Z,19.10
2023-02-09T13:28:16.153Z,18.00
2023-02-09T13:29:20.838Z,18.00
2023-02-09T13:30:23.671Z,18.50
2023-02-09T13:31:24.942Z,18.40
2023-02-09T13:32:16.341Z,18.60
2023-02-09T13:33:15.885Z,18.50
2023-02-09T13:34:16.195Z,18.30
2023-02-09T13:35:22.612Z,17.20
2023-02-09T13:36:24.157Z,18.70
2023-02-09T13:37:16.215Z,19.00
2023-02-09T13:38:18.337Z,18.40
2023-02-09T13:39:16.257Z,20.10
2023-02-09T13:40:16.010Z,19.90
2023-02-09T13:41:16.926Z,20.50
2023-02-09T13:42:18.075Z,20.70
2023-02-09T13:43:16.084Z,20.40
2023-02-09T13:44:19.942Z,19.90
2023-02-09T13:45:23.646Z,20.30
2023-02-09T13:46:18.193Z,19.70
2023-02-09T13:47:16.005Z,23.30
2023-02-09T13:48:16.148Z,23.10
2023-02-09T13:49:16.549Z,21.70
2023-02-09T13:50:16.330Z,20.20
2023-02-09T13:51:16.136Z,20.70
2023-02-09T13:52:16.431Z,19.90
2023-02-09T13:53:16.141Z,21.20
2023-02-09T13:54:16.437Z,19.50
2023-02-09T13:55:16.423Z,21.30
2023-02-09T13:56:16.483Z,19.90
2023-02-09T13:57:16.203Z,20.20
2023-02-09T13:58:16.301Z,22.70
2023-02-09T13:59:16.371Z,21.80
2023-02-09T14:00:19.188Z,20.40
2023-02-09T14:01:16.271Z,22.90
2023-02-09T14:02:16.425Z,19.70
2023-02-09T14:03:16.388Z,20.60
2023-02-09T14:04:16.443Z,21.50
2023-02-09T14:05:16.307Z,19.40
2023-02-09T14:06:16.540Z,23.50
2023-02-09T14:07:21.103Z,22.30
2023-02-09T14:08:37.240Z,19.00
2023-02-09T14:09:20.513Z,18.60
2023-02-09T14:10:22.634Z,21.40
2023-02-09T14:11:16.910Z,22.80
2023-02-09T14:12:18.882Z,22.20
2023-02-09T14:13:27.349Z,22.60
2023-02-09T14:14:16.782Z,23.20
2023-02-09T14:15:25.260Z,21.90
2023-02-09T14:16:16.645Z,20.80
2023-02-09T14:17:24.706Z,22.90
2023-02-09T14:18:16.313Z,22.90
2023-02-09T14:19:25.274Z,22.50
2023-02-09T14:20:16.863Z,23.70
2023-02-09T14:21:18.887Z,24.20
2023-02-09T14:22:16.393Z,22.60
2023-02-09T14:23:16.718Z,22.20
2023-02-09T14:24:16.638Z,21.90
2023-02-09T14:25:19.917Z,20.70
2023-02-09T14:26:16.720Z,24.10
2023-02-09T14:27:19.242Z,22.70
2023-02-09T14:28:27.300Z,22.30
2023-02-09T14:29:19.434Z,25.20
2023-02-09T14:30:17.468Z,23.70
2023-02-09T14:31:16.664Z,24.60
2023-02-09T14:32:24.235Z,24.70
2023-02-09T14:33:22.627Z,22.60
2023-02-09T14:34:16.738Z,25.00
2023-02-09T14:35:16.956Z,23.90
2023-02-09T14:36:50.984Z,24.40
